Latest Weather Observations for Browse Island

IDW60801

Issued at 6:32 am WST Thursday 5 March 2015 (issued every 30 minutes, with the page automatically refreshed every 10 minutes)

About weather observations | Map of weather stations | Latest weather observations for WA | Other Formats
Station Details ID: 200784 Name: BROWSE ISLAND Lat: -14.11 Lon: 123.55 Height: 3.7 m
Data from the previous 72 hours. | See also: Recent months for locations in Western Australia
Date/Time
WST
Temp
°C
App
Temp
°C
Dew
Point
Rel
Hum
%
Delta-T
°C
Wind Press
QNH
hPa
Press
MSL
hPa
Rain
since 9 am
mm
Dir
 
Spd
km/h
Gust
km/h
Spd
kts
Gust
kts
05/06:30am 29.0 - - - - CALM 0 0 0 0 1008.0 - -
05/06:00am 28.2 - - - - CALM 0 0 0 0 1008.0 1008.4 -
05/05:30am 28.0 - - - - NW 2 - 1 - 1008.0 - -
05/05:00am 28.2 - - - - CALM 0 - 0 - 1008.0 1007.9 -
05/04:30am 28.0 - - - - CALM 0 - 0 - 1007.0 - -
05/04:00am 28.6 - - - - WSW 6 - 3 - 1007.0 1007.3 -
05/03:30am 29.0 - - - - WSW 6 - 3 - 1007.0 - -
05/03:00am 28.7 - - - - W 7 - 4 - 1007.0 1007.3 -
05/02:30am 29.0 - - - - W 9 - 5 - 1007.0 - -
05/02:00am 28.6 - - - - WNW 11 - 6 - 1007.0 1007.3 -
05/01:30am 29.0 - - - - W 11 - 6 - 1007.0 - -
05/01:00am 28.8 - - - - W 11 - 6 - 1007.0 1007.8 -
05/12:30am 29.0 - - - - WNW 9 - 5 - 1008.0 - -
05/12:00am 28.8 - - - - W 9 11 5 6 1008.0 1008.1 -
 
Date/Time
WST
Temp
°C
App
Temp
°C
Dew
Point
Rel
Hum
%
Delta-T
°C
Wind Press
QNH
hPa
Press
MSL
hPa
Rain
since 9 am
mm
Dir
 
Spd
km/h
Gust
km/h
Spd
kts
Gust
kts
04/11:30pm 29.0 - - - - WNW 9 - 5 - 1008.0 - -
04/11:00pm 29.1 - - - - W 9 - 5 - 1008.0 1008.8 -
04/10:30pm 29.0 - - - - SW 7 - 4 - 1009.0 - -
04/10:00pm 29.1 - - - - S 7 - 4 - 1009.0 1009.4 -
04/09:30pm 29.0 - - - - SW 7 - 4 - 1009.0 - -
04/09:00pm 29.3 - - - - SW 7 - 4 - 1009.0 1009.2 -
04/08:30pm 29.0 - - - - WSW 9 - 5 - 1009.0 - -
04/08:00pm 29.2 - - - - WSW 9 - 5 - 1008.0 1008.6 -
04/07:30pm 29.0 - - - - WSW 11 - 6 - 1008.0 - -
04/07:00pm 29.2 - - - - W 11 - 6 - 1008.0 1008.1 -
04/06:30pm 29.0 - - - - W 13 - 7 - 1007.0 - -
04/06:00pm 29.1 - - - - W 15 15 8 8 1007.0 1007.0 -
04/05:30pm 29.0 - - - - W 15 - 8 - 1007.0 - -
04/05:00pm 29.2 - - - - W 13 - 7 - 1006.0 1006.3 -
04/04:30pm 29.0 - - - - W 15 - 8 - 1006.0 - -
04/04:00pm 29.5 - - - - WNW 15 - 8 - 1006.0 1005.9 -
04/03:30pm 30.0 - - - - WNW 15 - 8 - 1005.0 - -
04/03:00pm 29.4 - - - - WNW 13 - 7 - 1005.0 1005.6 -
04/02:30pm 30.0 - - - - WNW 15 - 8 - 1006.0 - -
04/02:00pm 29.5 - - - - WNW 17 - 9 - 1006.0 1006.1 -
04/01:30pm 29.0 - - - - NW 15 - 8 - 1006.0 - -
04/01:00pm 29.5 - - - - NNW 17 - 9 - 1006.0 1006.8 -
04/12:30pm 30.0 - - - - NW 17 - 9 - 1007.0 - -
04/12:00pm 29.2 - - - - NNW 15 - 8 - 1007.0 1007.3 -
04/11:30am 29.0 - - - - N 13 - 7 - 1007.0 - -
04/11:00am 29.7 - - - - NNW 9 - 5 - 1008.0 1007.9 -
04/10:30am 29.0 - - - - N 9 - 5 - 1008.0 - -
04/10:00am 29.2 - - - - N 11 - 6 - 1008.0 1007.9 -
04/09:30am 29.0 - - - - N 15 - 8 - 1008.0 - -
04/09:00am 28.8 - - - - NNW 13 - 7 - 1008.0 1007.9 -
04/08:30am 29.0 - - - - N 13 - 7 - 1008.0 - -
04/08:00am 28.6 - - - - N 13 - 7 - 1007.0 1007.7 -
04/07:30am 29.0 - - - - N 15 - 8 - 1007.0 - -
04/07:00am 28.4 - - - - N 13 - 7 - 1007.0 1006.9 -
04/06:30am 28.0 - - - - N 13 - 7 - 1006.0 - -
04/06:00am 28.1 - - - - N 11 - 6 - 1006.0 1006.3 -
04/05:30am 28.0 - - - - N 13 - 7 - 1006.0 - -
04/05:00am 27.8 - - - - N 13 - 7 - 1005.0 1005.7 -
04/04:30am 28.0 - - - - N 15 - 8 - 1005.0 - -
04/04:00am 28.0 - - - - N 15 - 8 - 1005.0 1005.0 -
04/03:30am 28.0 - - - - N 17 - 9 - 1005.0 - -
04/03:00am 27.9 - - - - N 17 - 9 - 1005.0 1005.0 -
04/02:30am 28.0 - - - - N 13 - 7 - 1005.0 - -
04/02:00am 28.0 - - - - N 15 - 8 - 1005.0 1005.4 -
04/01:30am 28.0 - - - - NNE 13 - 7 - 1005.0 - -
04/01:00am 27.9 - - - - NNE 17 - 9 - 1005.0 1005.6 -
04/12:30am 28.0 - - - - NNE 19 - 10 - 1005.0 - -
04/12:00am 27.8 - - - - NE 19 - 10 - 1006.0 1006.1 -
 
Date/Time
WST
Temp
°C
App
Temp
°C
Dew
Point
Rel
Hum
%
Delta-T
°C
Wind Press
QNH
hPa
Press
MSL
hPa
Rain
since 9 am
mm
Dir
 
Spd
km/h
Gust
km/h
Spd
kts
Gust
kts
03/11:30pm 28.0 - - - - ENE 19 - 10 - 1006.0 - -
03/11:00pm 27.5 - - - - E 22 - 12 - 1006.0 1006.6 -
03/10:30pm 27.0 - - - - E 20 - 11 - 1006.0 - -
03/10:00pm 26.9 - - - - ESE 20 - 11 - 1006.0 1006.7 -
03/09:30pm 27.0 - - - - SE 20 - 11 - 1006.0 - -
03/09:00pm 27.1 - - - - ESE 17 - 9 - 1006.0 1006.7 -
03/08:30pm 27.0 - - - - ESE 17 - 9 - 1006.0 - -
03/08:00pm 27.2 - - - - SE 19 - 10 - 1006.0 1006.5 -
03/07:30pm 27.0 - - - - ESE 17 - 9 - 1006.0 - -
03/07:00pm 26.5 - - - - ESE 24 - 13 - 1006.0 1005.9 -
03/06:30pm 28.0 - - - - S 15 - 8 - 1005.0 - -
03/06:00pm 27.7 - - - - SSE 9 - 5 - 1005.0 1005.4 -
03/05:30pm 28.0 - - - - S 9 - 5 - 1005.0 - -
03/05:00pm 27.8 - - - - SSE 7 - 4 - 1005.0 1004.9 -
03/04:30pm 28.0 - - - - SE 11 - 6 - 1005.0 - -
03/04:00pm 27.9 - - - - SE 9 - 5 - 1005.0 1004.9 -
03/03:30pm 28.0 - - - - ESE 11 - 6 - 1005.0 - -
03/03:00pm 28.1 - - - - ESE 11 - 6 - 1005.0 1004.9 -
03/02:30pm 28.0 - - - - ESE 15 - 8 - 1005.0 - -
03/02:00pm 28.3 - - - - ESE 17 - 9 - 1005.0 1005.2 -
03/01:30pm 28.0 - - - - SE 17 - 9 - 1005.0 - -
03/01:00pm 27.1 - - - - SE 19 - 10 - 1005.0 1005.6 -
03/12:30pm 27.0 - - - - SSE 22 - 12 - 1005.0 - -
03/12:00pm 27.1 - - - - SSE 32 - 17 - 1006.0 1006.7 -
03/11:30am 28.0 - - - - SSE 30 - 16 - 1007.0 - -
03/11:00am 27.4 - - - - S 24 - 13 - 1008.0 1008.0 -
03/10:30am 27.0 - - - - S 32 - 17 - 1008.0 - -
03/10:00am 27.3 - - - - SSW 19 - 10 - 1008.0 1008.4 -
03/09:30am 26.0 - - - - S 24 - 13 - 1008.0 - -
03/09:00am 26.8 - - - - S 33 - 18 - 1008.0 1008.2 -
03/08:56am 27.0 - - - - S 33 - 18 - 1008.0 - -
03/08:30am 28.0 - - - - S 13 - 7 - 1008.0 - -
03/08:00am 28.7 - - - - S 15 - 8 - 1008.0 1008.5 -
03/07:30am 29.0 - - - - SSW 13 - 7 - 1008.0 - -
03/07:00am 28.9 - - - - SSW 19 - 10 - 1008.0 1008.1 -
03/06:30am 29.0 - - - - SW 20 - 11 - 1007.0 - -
03/06:00am 28.7 - - - - SW 20 - 11 - 1007.0 1006.9 -
03/05:30am 29.0 - - - - SW 19 - 10 - 1006.0 - -
03/05:00am 28.8 - - - - SW 22 - 12 - 1006.0 1006.2 -
03/04:30am 29.0 - - - - SW 24 - 13 - 1005.0 - -
03/04:00am 28.7 - - - - WSW 26 - 14 - 1005.0 1005.3 -
03/03:30am 29.0 - - - - WSW 26 - 14 - 1005.0 - -
03/03:00am 28.9 - - - - SW 26 - 14 - 1005.0 1005.3 -
03/02:30am 29.0 - - - - WSW 28 - 15 - 1005.0 - -
03/02:00am 28.8 - - - - SW 26 - 14 - 1005.0 1005.7 -
03/01:30am 29.0 - - - - SW 22 - 12 - 1006.0 - -
03/01:00am 28.8 - - - - SW 22 - 12 - 1006.0 1006.2 -
03/12:30am 29.0 - - - - WSW 24 - 13 - 1006.0 - -
03/12:00am 29.0 - - - - WSW 24 - 13 - 1006.0 1006.7 -
 
Date/Time
WST
Temp
°C
App
Temp
°C
Dew
Point
Rel
Hum
%
Delta-T
°C
Wind Press
QNH
hPa
Press
MSL
hPa
Rain
since 9 am
mm
Dir
 
Spd
km/h
Gust
km/h
Spd
kts
Gust
kts
02/11:30pm 29.0 - - - - WSW 24 - 13 - 1007.0 - -
02/11:00pm 29.1 - - - - WSW 22 - 12 - 1007.0 1007.3 -
02/10:30pm 29.0 - - - - WSW 22 - 12 - 1007.0 - -
02/10:00pm 29.1 - - - - WSW 22 - 12 - 1007.0 1007.4 -
02/09:30pm 29.0 - - - - WSW 22 - 12 - 1007.0 - -
02/09:00pm 29.1 - - - - WSW 20 - 11 - 1007.0 1007.2 -
02/08:30pm 29.0 - - - - WSW 22 - 12 - 1006.0 - -
02/08:00pm 29.1 - - - - WSW 22 - 12 - 1006.0 1006.3 -
02/07:30pm 29.0 - - - - WSW 26 - 14 - 1006.0 - -
02/07:00pm 29.1 - - - - WSW 26 - 14 - 1006.0 1005.9 -
02/06:30pm 29.0 - - - - SW 24 - 13 - 1005.0 - -
02/06:00pm 29.1 - - - - SW 26 - 14 - 1005.0 1005.3 -
02/05:30pm 29.0 - - - - WSW 24 - 13 - 1004.0 - -
02/05:00pm 29.1 - - - - WSW 28 - 15 - 1004.0 1004.4 -
02/04:30pm 29.0 - - - - WSW 30 - 16 - 1004.0 - -
02/04:00pm 29.1 - - - - WSW 28 - 15 - 1004.0 1004.3 -
02/03:30pm 29.0 - - - - WSW 26 - 14 - 1004.0 - -
02/03:00pm 29.3 - - - - WSW 26 - 14 - 1004.0 1004.7 -
02/02:30pm 29.0 - - - - WSW 28 - 15 - 1005.0 - -
02/02:00pm 29.2 - - - - SW 26 - 14 - 1005.0 1005.2 -
02/01:30pm 29.0 - - - - SW 26 - 14 - 1005.0 - -
02/01:00pm 29.3 - - - - SW 26 - 14 - 1005.0 1005.8 -
02/12:30pm 29.0 - - - - SW 28 - 15 - 1006.0 - -
02/12:00pm 29.3 - - - - SW 26 - 14 - 1006.0 1006.6 -
02/11:30am 29.0 - - - - WSW 26 - 14 - 1007.0 - -
02/11:00am 29.2 - - - - WSW 26 - 14 - 1007.0 1007.2 -
02/10:30am 29.0 - - - - SW 28 - 15 - 1007.0 - -
02/10:00am 29.1 - - - - WSW 24 - 13 - 1007.0 1007.5 -
02/09:30am 29.0 - - - - WSW 26 - 14 - 1007.0 - -
02/09:00am 29.1 - - - - SW 24 - 13 - 1007.0 1007.8 -
02/08:30am 29.0 - - - - WSW 24 - 13 - 1007.0 - -
02/08:00am 29.0 - - - - SW 24 - 13 - 1007.0 1007.6 -
02/07:30am 29.0 - - - - SW 22 - 12 - 1007.0 - -
02/07:00am 29.0 - - - - WSW 24 - 13 - 1007.0 1007.3 -

Other Formats:

Comma delimited format used in spreadsheet applications
http://www.bom.gov.au/fwo/IDW60801/IDW60801.94103.axf

JavaScript Object Notation format (JSON) in row-major order
http://www.bom.gov.au/fwo/IDW60801/IDW60801.94103.json